createdAt,value
2017-06-26T00:00:33.641Z,18.81
2017-06-26T00:01:33.610Z,18.9
2017-06-26T00:02:33.600Z,18.92
2017-06-26T00:03:33.584Z,18.93
2017-06-26T00:04:33.270Z,18.85
2017-06-26T00:05:33.572Z,18.88
2017-06-26T00:06:33.316Z,18.85
2017-06-26T00:07:33.540Z,18.75
2017-06-26T00:08:33.511Z,18.7
2017-06-26T00:09:33.189Z,18.78
2017-06-26T00:10:33.180Z,18.7
2017-06-26T00:11:33.171Z,18.75
2017-06-26T00:12:33.551Z,18.73
2017-06-26T00:13:33.129Z,18.78
2017-06-26T00:14:33.199Z,18.78
2017-06-26T00:15:33.409Z,18.82
2017-06-26T00:16:33.099Z,18.8
2017-06-26T00:17:33.372Z,18.77
2017-06-26T00:18:33.368Z,18.78
2017-06-26T00:19:33.346Z,18.62
2017-06-26T00:20:33.371Z,18.62
2017-06-26T00:21:33.308Z,18.63
2017-06-26T00:22:32.994Z,18.63
2017-06-26T00:23:33.289Z,18.69
2017-06-26T00:24:32.996Z,18.58
2017-06-26T00:25:32.629Z,18.65
2017-06-26T00:26:33.298Z,18.73
2017-06-26T00:27:32.908Z,18.62
2017-06-26T00:28:32.918Z,18.62
2017-06-26T00:29:33.269Z,18.59
2017-06-26T00:30:33.222Z,18.66
2017-06-26T00:31:33.193Z,18.66
2017-06-26T00:32:33.246Z,18.65
2017-06-26T00:33:32.832Z,18.65
2017-06-26T00:34:32.803Z,18.63
2017-06-26T00:35:33.229Z,18.62
2017-06-26T00:36:33.140Z,18.63
2017-06-26T00:37:32.789Z,18.55
2017-06-26T00:38:32.756Z,18.55
2017-06-26T00:39:32.429Z,18.58
2017-06-26T00:40:32.418Z,18.55
2017-06-26T00:41:32.702Z,18.6
2017-06-26T00:42:32.688Z,18.48
2017-06-26T00:43:32.669Z,18.51
2017-06-26T00:44:32.659Z,18.45
2017-06-26T00:45:33.038Z,18.59
2017-06-26T00:46:32.626Z,18.5
2017-06-26T00:47:32.947Z,18.56
2017-06-26T00:48:32.893Z,18.6
2017-06-26T00:49:32.583Z,18.51
2017-06-26T00:50:32.869Z,18.55
2017-06-26T00:51:32.603Z,18.45
2017-06-26T00:52:32.848Z,18.52
2017-06-26T00:53:32.870Z,18.5
2017-06-26T00:54:32.807Z,18.42
2017-06-26T00:55:32.785Z,18.42
2017-06-26T00:56:32.462Z,18.42
2017-06-26T00:57:32.468Z,18.45
2017-06-26T00:58:32.759Z,18.47
2017-06-26T00:59:32.735Z,18.42
2017-06-26T01:00:32.712Z,18.48
2017-06-26T01:01:32.415Z,18.48
2017-06-26T01:02:32.682Z,18.51
2017-06-26T01:03:32.678Z,18.45
2017-06-26T01:04:32.362Z,18.42
2017-06-26T01:05:32.350Z,18.41
2017-06-26T01:06:32.313Z,18.48
2017-06-26T01:07:32.317Z,18.44
2017-06-26T01:08:32.597Z,18.42
2017-06-26T01:09:32.278Z,18.44
2017-06-26T01:10:32.570Z,18.44
2017-06-26T01:11:32.569Z,18.59
2017-06-26T01:12:32.551Z,18.59
2017-06-26T01:13:32.520Z,18.63
2017-06-26T01:14:32.502Z,18.62
2017-06-26T01:15:32.191Z,18.63
2017-06-26T01:16:32.468Z,18.69
2017-06-26T01:17:31.839Z,18.52
2017-06-26T01:18:32.457Z,18.6
2017-06-26T01:19:32.437Z,18.55
2017-06-26T01:20:32.408Z,18.55
2017-06-26T01:21:32.397Z,18.65
2017-06-26T01:22:32.079Z,18.63
2017-06-26T01:23:32.071Z,18.56
2017-06-26T01:24:32.048Z,18.55
2017-06-26T01:25:32.328Z,18.52
2017-06-26T01:26:32.317Z,18.56
2017-06-26T01:27:31.998Z,18.52
2017-06-26T01:28:31.987Z,18.6
2017-06-26T01:29:31.960Z,18.52
2017-06-26T01:30:32.248Z,18.5
2017-06-26T01:31:32.239Z,18.5
2017-06-26T01:32:31.931Z,18.56
2017-06-26T01:33:31.909Z,18.65
2017-06-26T01:34:32.198Z,18.63
2017-06-26T01:35:32.197Z,18.51
2017-06-26T01:36:31.859Z,18.48
2017-06-26T01:37:31.855Z,18.42
2017-06-26T01:38:31.820Z,18.55
2017-06-26T01:39:32.127Z,18.47
2017-06-26T01:40:31.487Z,18.41
2017-06-26T01:41:32.097Z,18.47
2017-06-26T01:42:32.069Z,18.5
2017-06-26T01:43:32.058Z,18.5
2017-06-26T01:44:31.732Z,18.5
2017-06-26T01:45:31.718Z,18.55
2017-06-26T01:46:31.696Z,18.6
2017-06-26T01:47:31.687Z,18.48
2017-06-26T01:48:31.669Z,18.52
2017-06-26T01:49:31.970Z,18.58
2017-06-26T01:50:31.335Z,18.62
2017-06-26T01:51:31.616Z,18.66
2017-06-26T01:52:31.605Z,18.52
2017-06-26T01:53:31.597Z,18.58
2017-06-26T01:54:31.578Z,18.55
2017-06-26T01:55:31.880Z,18.4
2017-06-26T01:56:31.847Z,18.52
2017-06-26T01:57:31.534Z,18.44
2017-06-26T01:58:31.526Z,18.47
2017-06-26T01:59:31.507Z,18.6
2017-06-26T02:00:31.489Z,18.55
2017-06-26T02:01:31.788Z,18.55
2017-06-26T02:02:31.753Z,18.59
2017-06-26T02:03:31.747Z,18.62
2017-06-26T02:04:31.730Z,18.66
2017-06-26T02:05:31.448Z,18.6
2017-06-26T02:06:31.708Z,18.65
2017-06-26T02:07:31.796Z,18.48
2017-06-26T02:08:31.666Z,18.6
2017-06-26T02:09:31.354Z,18.59
2017-06-26T02:10:31.636Z,18.63
2017-06-26T02:11:31.318Z,18.55
2017-06-26T02:12:31.308Z,18.47
2017-06-26T02:13:31.378Z,18.47
2017-06-26T02:14:31.578Z,18.45
2017-06-26T02:15:31.577Z,18.5
2017-06-26T02:16:31.547Z,18.5
2017-06-26T02:17:31.233Z,18.47
2017-06-26T02:18:31.218Z,18.62
2017-06-26T02:19:31.504Z,18.48
2017-06-26T02:20:31.197Z,18.45
2017-06-26T02:21:31.527Z,18.48
2017-06-26T02:22:30.848Z,18.47
2017-06-26T02:23:31.153Z,18.4
2017-06-26T02:24:31.447Z,18.42
2017-06-26T02:25:31.455Z,18.42
2017-06-26T02:26:31.408Z,18.42
2017-06-26T02:27:31.486Z,18.52
2017-06-26T02:28:31.364Z,18.44
2017-06-26T02:29:31.371Z,18.45
2017-06-26T02:30:31.356Z,18.56
2017-06-26T02:31:31.369Z,18.47
2017-06-26T02:32:31.046Z,18.55
2017-06-26T02:33:31.302Z,18.56
2017-06-26T02:34:31.298Z,18.58
2017-06-26T02:35:30.975Z,18.47
2017-06-26T02:36:31.081Z,18.42
2017-06-26T02:37:31.279Z,18.48
2017-06-26T02:38:31.314Z,18.47
2017-06-26T02:39:31.210Z,18.4
2017-06-26T02:40:31.254Z,18.42
2017-06-26T02:41:30.858Z,18.4
2017-06-26T02:42:30.838Z,18.48
2017-06-26T02:43:31.145Z,18.42
2017-06-26T02:44:30.817Z,18.47
2017-06-26T02:45:31.120Z,18.48
2017-06-26T02:46:30.793Z,18.42
2017-06-26T02:47:30.779Z,18.42
2017-06-26T02:48:31.059Z,18.41
2017-06-26T02:49:31.041Z,18.4
2017-06-26T02:50:30.725Z,18.35
2017-06-26T02:51:31.025Z,18.35
2017-06-26T02:52:31.029Z,18.47
2017-06-26T02:53:30.988Z,18.38
2017-06-26T02:54:31.019Z,18.38
2017-06-26T02:55:30.942Z,18.4
2017-06-26T02:56:30.676Z,18.42
2017-06-26T02:57:30.300Z,18.45
2017-06-26T02:58:30.341Z,18.44
2017-06-26T02:59:30.580Z,18.47
2017-06-26T03:00:30.879Z,18.52
2017-06-26T03:01:30.862Z,18.56
2017-06-26T03:02:30.841Z,18.59
2017-06-26T03:03:30.828Z,18.51
2017-06-26T03:04:30.806Z,18.47
2017-06-26T03:05:30.491Z,18.45
2017-06-26T03:06:30.782Z,18.47
2017-06-26T03:07:30.764Z,18.42
2017-06-26T03:08:30.764Z,18.5
2017-06-26T03:09:30.454Z,18.45
2017-06-26T03:10:30.741Z,18.38
2017-06-26T03:11:30.707Z,18.38
2017-06-26T03:12:30.400Z,18.35
2017-06-26T03:13:30.676Z,18.38
2017-06-26T03:14:30.380Z,18.33
2017-06-26T03:15:30.330Z,18.37
2017-06-26T03:16:30.310Z,18.38
2017-06-26T03:17:30.310Z,18.35
2017-06-26T03:18:29.997Z,18.29
2017-06-26T03:19:30.390Z,18.51
2017-06-26T03:20:30.261Z,18.38
2017-06-26T03:21:30.561Z,18.38
2017-06-26T03:22:30.245Z,18.35
2017-06-26T03:23:30.520Z,18.41
2017-06-26T03:24:30.514Z,18.35
2017-06-26T03:25:30.488Z,18.41
2017-06-26T03:26:29.860Z,18.4
2017-06-26T03:27:30.151Z,18.37
2017-06-26T03:28:30.454Z,18.35
2017-06-26T03:29:30.136Z,18.42
2017-06-26T03:30:30.424Z,18.44
2017-06-26T03:31:30.413Z,18.38
2017-06-26T03:32:30.088Z,18.33
2017-06-26T03:33:30.067Z,18.37
2017-06-26T03:34:30.056Z,18.38
2017-06-26T03:35:29.711Z,18.37
2017-06-26T03:36:30.339Z,18.42
2017-06-26T03:37:30.090Z,18.35
2017-06-26T03:38:29.683Z,18.38
2017-06-26T03:39:29.961Z,18.35
2017-06-26T03:40:30.262Z,18.4
2017-06-26T03:41:30.235Z,18.38
2017-06-26T03:42:29.931Z,18.4
2017-06-26T03:43:29.603Z,18.27
2017-06-26T03:44:29.891Z,18.33
2017-06-26T03:45:30.179Z,18.37
2017-06-26T03:46:29.556Z,18.4
2017-06-26T03:47:29.885Z,18.42
2017-06-26T03:48:30.140Z,18.29
2017-06-26T03:49:30.135Z,18.27
2017-06-26T03:50:30.108Z,18.27
2017-06-26T03:51:29.481Z,18.29
2017-06-26T03:52:30.112Z,18.33
2017-06-26T03:53:29.458Z,18.27
2017-06-26T03:54:30.061Z,18.32
2017-06-26T03:55:30.032Z,18.26
2017-06-26T03:56:29.739Z,18.37
2017-06-26T03:57:29.391Z,18.26
2017-06-26T03:58:29.674Z,18.26
2017-06-26T03:59:29.975Z,18.33
2017-06-26T04:00:29.660Z,18.26
2017-06-26T04:01:29.625Z,18.26
2017-06-26T04:02:29.631Z,18.25
2017-06-26T04:03:29.604Z,18.26
2017-06-26T04:04:29.897Z,18.25
2017-06-26T04:05:29.277Z,18.23
2017-06-26T04:06:29.570Z,18.29
2017-06-26T04:07:29.549Z,18.29
2017-06-26T04:08:29.522Z,18.26
2017-06-26T04:09:29.800Z,18.26
2017-06-26T04:10:29.822Z,18.14
2017-06-26T04:11:29.830Z,18.26
2017-06-26T04:12:29.183Z,18.22
2017-06-26T04:13:29.480Z,18.14
2017-06-26T04:14:29.534Z,18.22
2017-06-26T04:15:29.126Z,18.27
2017-06-26T04:16:29.112Z,18.26
2017-06-26T04:17:29.689Z,18.25
2017-06-26T04:18:29.126Z,18.15
2017-06-26T04:19:29.666Z,18.11
2017-06-26T04:20:29.394Z,18.11
2017-06-26T04:21:29.013Z,18.12
2017-06-26T04:22:29.410Z,18.22
2017-06-26T04:23:28.985Z,18.19
2017-06-26T04:24:29.680Z,18.15
2017-06-26T04:25:29.269Z,18.19
2017-06-26T04:26:29.354Z,18.14
2017-06-26T04:27:29.233Z,18.15
2017-06-26T04:28:29.572Z,18.14
2017-06-26T04:29:29.511Z,18.22
2017-06-26T04:30:28.978Z,18.14
2017-06-26T04:31:29.169Z,18.22
2017-06-26T04:32:29.515Z,18.26
2017-06-26T04:33:29.442Z,18.33
2017-06-26T04:34:29.139Z,18.29
2017-06-26T04:35:29.100Z,18.23
2017-06-26T04:36:29.090Z,18.35
2017-06-26T04:37:29.183Z,18.23
2017-06-26T04:38:29.414Z,18.29
2017-06-26T04:39:29.353Z,18.4
2017-06-26T04:40:29.445Z,18.44
2017-06-26T04:41:29.385Z,18.35
2017-06-26T04:42:29.063Z,18.48
2017-06-26T04:43:29.304Z,18.47
2017-06-26T04:44:28.975Z,18.44
2017-06-26T04:45:28.968Z,18.48
2017-06-26T04:46:29.243Z,18.41
2017-06-26T04:47:28.931Z,18.5
2017-06-26T04:48:29.227Z,18.6
2017-06-26T04:49:28.920Z,18.58
2017-06-26T04:50:28.890Z,18.47
2017-06-26T04:51:29.195Z,18.48
2017-06-26T04:52:28.851Z,18.5
2017-06-26T04:53:28.844Z,18.47
2017-06-26T04:54:28.844Z,18.4
2017-06-26T04:55:29.109Z,18.37
2017-06-26T04:56:29.091Z,18.38
2017-06-26T04:57:28.780Z,18.37
2017-06-26T04:58:29.066Z,18.47
2017-06-26T04:59:29.053Z,18.41
2017-06-26T05:00:28.748Z,18.4
2017-06-26T05:01:29.030Z,18.48
2017-06-26T05:02:28.997Z,18.48
2017-06-26T05:03:29.005Z,18.5
2017-06-26T05:04:28.976Z,18.44
2017-06-26T05:05:28.959Z,18.48
2017-06-26T05:06:28.651Z,18.48
2017-06-26T05:07:28.935Z,18.47
2017-06-26T05:08:28.604Z,18.55
2017-06-26T05:09:28.600Z,18.6
2017-06-26T05:10:28.895Z,18.7
2017-06-26T05:11:28.872Z,18.6
2017-06-26T05:12:28.850Z,18.69
2017-06-26T05:13:28.850Z,18.75
2017-06-26T05:14:28.211Z,18.78
2017-06-26T05:15:28.827Z,18.74
2017-06-26T05:16:28.813Z,18.85
2017-06-26T05:17:28.783Z,18.96
2017-06-26T05:18:28.765Z,18.87
2017-06-26T05:19:28.531Z,18.93
2017-06-26T05:20:28.428Z,18.87
2017-06-26T05:21:28.434Z,18.88
2017-06-26T05:22:28.474Z,18.84
2017-06-26T05:23:28.691Z,18.9
2017-06-26T05:24:28.372Z,18.95
2017-06-26T05:25:28.362Z,18.9
2017-06-26T05:26:28.663Z,18.96
2017-06-26T05:27:28.341Z,18.95
2017-06-26T05:28:28.322Z,18.9
2017-06-26T05:29:28.600Z,19.11
2017-06-26T05:30:28.585Z,19.06
2017-06-26T05:31:27.962Z,19.06
2017-06-26T05:32:28.555Z,19.07
2017-06-26T05:33:27.936Z,19.19
2017-06-26T05:34:28.275Z,19.18
2017-06-26T05:35:28.521Z,19.18
2017-06-26T05:36:28.501Z,19.18
2017-06-26T05:37:28.482Z,19.06
2017-06-26T05:38:28.166Z,19.11
2017-06-26T05:39:28.451Z,19.21
2017-06-26T05:40:28.473Z,19.22
2017-06-26T05:41:28.433Z,19.31
2017-06-26T05:42:27.818Z,19.33
2017-06-26T05:43:28.389Z,19.4
2017-06-26T05:44:28.395Z,19.4
2017-06-26T05:45:28.377Z,19.33
2017-06-26T05:46:28.056Z,19.19
2017-06-26T05:47:28.343Z,19.21
2017-06-26T05:48:28.025Z,19.21
2017-06-26T05:49:28.303Z,19.21
2017-06-26T05:50:27.992Z,19.23
2017-06-26T05:51:27.983Z,19.23
2017-06-26T05:52:27.954Z,19.26
2017-06-26T05:53:28.262Z,19.23
2017-06-26T05:54:27.945Z,19.25
2017-06-26T05:55:27.926Z,19.23
2017-06-26T05:56:27.907Z,19.19
2017-06-26T05:57:28.205Z,19.23
2017-06-26T05:58:28.193Z,19.22
2017-06-26T05:59:28.165Z,19.16
2017-06-26T06:00:27.935Z,19.07
2017-06-26T06:01:27.873Z,19.02
2017-06-26T06:02:28.163Z,19.14
2017-06-26T06:03:27.501Z,19.04
2017-06-26T06:04:28.106Z,19.04
2017-06-26T06:05:27.774Z,19
2017-06-26T06:06:27.822Z,19.11
2017-06-26T06:07:27.751Z,19.12
2017-06-26T06:08:27.758Z,19.21
2017-06-26T06:09:27.425Z,19.22
2017-06-26T06:10:28.012Z,19.22
2017-06-26T06:11:28.417Z,19.18
2017-06-26T06:12:27.687Z,19.33
2017-06-26T06:13:27.652Z,19.31
2017-06-26T06:14:27.345Z,19.41
2017-06-26T06:15:27.675Z,19.48
2017-06-26T06:16:27.937Z,19.4
2017-06-26T06:17:27.662Z,19.44
2017-06-26T06:18:27.595Z,19.38
2017-06-26T06:19:27.580Z,19.46
2017-06-26T06:20:27.579Z,19.46
2017-06-26T06:21:27.879Z,19.59
2017-06-26T06:22:27.544Z,19.55
2017-06-26T06:23:27.826Z,19.73
2017-06-26T06:24:27.823Z,19.83
2017-06-26T06:25:27.878Z,19.78
2017-06-26T06:26:27.567Z,19.93
2017-06-26T06:27:27.532Z,19.96
2017-06-26T06:28:27.780Z,19.99
2017-06-26T06:29:27.753Z,19.99
2017-06-26T06:30:27.735Z,20.01
2017-06-26T06:31:27.716Z,19.81
2017-06-26T06:32:27.091Z,19.81
2017-06-26T06:33:27.393Z,19.92
2017-06-26T06:34:27.072Z,19.92
2017-06-26T06:35:27.375Z,19.96
2017-06-26T06:36:27.395Z,19.99
2017-06-26T06:37:27.705Z,19.92
2017-06-26T06:38:27.016Z,19.96
2017-06-26T06:39:27.395Z,19.95
2017-06-26T06:40:26.987Z,19.83
2017-06-26T06:41:27.665Z,19.81
2017-06-26T06:42:27.262Z,19.8
2017-06-26T06:43:27.565Z,19.71
2017-06-26T06:44:27.582Z,19.7
2017-06-26T06:45:27.540Z,19.74
2017-06-26T06:46:27.203Z,19.76
2017-06-26T06:47:27.513Z,19.8
2017-06-26T06:48:27.193Z,19.71
2017-06-26T06:49:27.475Z,19.7
2017-06-26T06:50:27.470Z,19.69
2017-06-26T06:51:27.463Z,19.78
2017-06-26T06:52:27.446Z,19.81
2017-06-26T06:53:27.434Z,19.81
2017-06-26T06:54:27.238Z,19.92
2017-06-26T06:55:27.130Z,19.89
2017-06-26T06:56:27.202Z,19.78
2017-06-26T06:57:27.376Z,19.81
2017-06-26T06:58:27.053Z,19.88
2017-06-26T06:59:27.343Z,19.99
2017-06-26T07:00:27.020Z,19.95
2017-06-26T07:01:26.694Z,19.93
2017-06-26T07:02:26.993Z,19.83
2017-06-26T07:03:26.979Z,19.89
2017-06-26T07:04:27.261Z,19.93
2017-06-26T07:05:26.633Z,19.77
2017-06-26T07:06:27.233Z,19.73
2017-06-26T07:07:27.232Z,19.73
2017-06-26T07:08:26.921Z,19.78
2017-06-26T07:09:26.577Z,19.76
2017-06-26T07:10:27.205Z,19.71
2017-06-26T07:11:27.181Z,19.76
2017-06-26T07:12:27.145Z,19.61
2017-06-26T07:13:27.152Z,19.55
2017-06-26T07:14:26.552Z,19.52
2017-06-26T07:15:26.804Z,19.51
2017-06-26T07:16:26.787Z,19.58
2017-06-26T07:17:26.795Z,19.63
2017-06-26T07:18:27.066Z,19.66
2017-06-26T07:19:26.744Z,19.73
2017-06-26T07:20:26.765Z,19.61
2017-06-26T07:21:26.420Z,19.55
2017-06-26T07:22:26.709Z,19.53
2017-06-26T07:23:26.810Z,19.53
2017-06-26T07:24:26.991Z,19.49
2017-06-26T07:25:26.672Z,19.61
2017-06-26T07:26:26.662Z,19.61
2017-06-26T07:27:27.055Z,19.73
2017-06-26T07:28:26.612Z,19.62
2017-06-26T07:29:27.019Z,19.78
2017-06-26T07:30:26.592Z,19.8
2017-06-26T07:31:26.582Z,19.96
2017-06-26T07:32:26.581Z,20.08
2017-06-26T07:33:26.963Z,20.07
2017-06-26T07:34:26.540Z,20.1
2017-06-26T07:35:26.224Z,20.2
2017-06-26T07:36:26.842Z,20.43
2017-06-26T07:37:26.839Z,20.4
2017-06-26T07:38:26.798Z,20.54
2017-06-26T07:39:26.540Z,20.38
2017-06-26T07:40:26.454Z,20.4
2017-06-26T07:41:26.450Z,20.4
2017-06-26T07:42:26.441Z,20.54
2017-06-26T07:43:26.429Z,20.6
2017-06-26T07:44:26.713Z,20.74
2017-06-26T07:45:26.399Z,20.74
2017-06-26T07:46:26.413Z,20.73
2017-06-26T07:47:26.700Z,20.72
2017-06-26T07:48:26.766Z,20.74
2017-06-26T07:49:26.338Z,20.54
2017-06-26T07:50:26.630Z,20.51
2017-06-26T07:51:26.640Z,20.52
2017-06-26T07:52:26.622Z,20.67
2017-06-26T07:53:26.613Z,20.62
2017-06-26T07:54:26.621Z,20.49
2017-06-26T07:55:26.582Z,20.51
2017-06-26T07:56:26.581Z,20.41
2017-06-26T07:57:26.229Z,20.4
2017-06-26T07:58:26.611Z,20.47
2017-06-26T07:59:26.530Z,20.72
2017-06-26T08:00:26.530Z,20.87
2017-06-26T08:01:26.186Z,20.89
2017-06-26T08:02:26.191Z,21.03
2017-06-26T08:03:26.463Z,21.07
2017-06-26T08:04:26.453Z,21.07
2017-06-26T08:05:26.445Z,21.07
2017-06-26T08:06:26.431Z,21.1
2017-06-26T08:07:26.417Z,21.11
2017-06-26T08:08:26.135Z,21.29
2017-06-26T08:09:26.415Z,21.25
2017-06-26T08:10:26.402Z,21.19
2017-06-26T08:11:26.380Z,21.22
2017-06-26T08:12:26.383Z,21.15
2017-06-26T08:13:26.371Z,21.09
2017-06-26T08:14:25.732Z,20.84
2017-06-26T08:15:26.342Z,20.73
2017-06-26T08:16:26.311Z,20.67
2017-06-26T08:17:26.003Z,20.67
2017-06-26T08:18:25.981Z,20.73
2017-06-26T08:19:26.268Z,20.81
2017-06-26T08:20:25.952Z,21.04
2017-06-26T08:21:25.973Z,21.26
2017-06-26T08:22:25.945Z,21.25
2017-06-26T08:23:26.221Z,21.25
2017-06-26T08:24:26.223Z,21.34
2017-06-26T08:25:25.910Z,21.43
2017-06-26T08:26:26.229Z,21.55
2017-06-26T08:27:26.187Z,21.44
2017-06-26T08:28:26.162Z,21.41
2017-06-26T08:29:25.852Z,21.33
2017-06-26T08:30:25.861Z,21.26
2017-06-26T08:31:25.829Z,21.21
2017-06-26T08:32:25.820Z,21.18
2017-06-26T08:33:26.122Z,21.24
2017-06-26T08:34:26.090Z,21.24
2017-06-26T08:35:26.090Z,21.26
2017-06-26T08:36:25.766Z,21.19
2017-06-26T08:37:26.062Z,21.28
2017-06-26T08:38:26.051Z,21.41
2017-06-26T08:39:25.742Z,21.54
2017-06-26T08:40:26.052Z,21.77
2017-06-26T08:41:26.012Z,21.81
2017-06-26T08:42:26.031Z,22.06
2017-06-26T08:43:26.012Z,22.14
2017-06-26T08:44:25.673Z,22.12
2017-06-26T08:45:25.981Z,22.21
2017-06-26T08:46:25.952Z,22.37
2017-06-26T08:47:25.661Z,22.4
2017-06-26T08:48:25.629Z,22.37
2017-06-26T08:49:25.677Z,22.42
2017-06-26T08:50:25.927Z,22.37
2017-06-26T08:51:25.940Z,22.52
2017-06-26T08:52:25.610Z,22.59
2017-06-26T08:53:25.571Z,22.55
2017-06-26T08:54:25.571Z,22.57
2017-06-26T08:55:25.573Z,22.43
2017-06-26T08:56:25.237Z,22.47
2017-06-26T08:57:25.843Z,22.33
2017-06-26T08:58:25.853Z,22.29
2017-06-26T08:59:25.252Z,22.35
2017-06-26T09:00:25.494Z,22.45
2017-06-26T09:01:25.177Z,22.47
2017-06-26T09:02:25.792Z,22.7
2017-06-26T09:03:25.463Z,22.66
2017-06-26T09:04:25.804Z,22.85
2017-06-26T09:05:25.496Z,22.69
2017-06-26T09:06:25.150Z,22.82
2017-06-26T09:07:25.431Z,22.97
2017-06-26T09:08:25.710Z,22.97
2017-06-26T09:09:25.088Z,22.79
2017-06-26T09:10:25.383Z,22.62
2017-06-26T09:11:25.712Z,22.17
2017-06-26T09:12:25.507Z,22.29
2017-06-26T09:13:25.355Z,22.21
2017-06-26T09:14:25.350Z,22.12
2017-06-26T09:15:25.659Z,22.27
2017-06-26T09:16:25.659Z,22.27
2017-06-26T09:17:25.610Z,22.32
2017-06-26T09:18:24.997Z,22.36
2017-06-26T09:19:25.597Z,22.4
2017-06-26T09:20:25.271Z,22.15
2017-06-26T09:21:25.567Z,22.06
2017-06-26T09:22:25.251Z,21.93
2017-06-26T09:23:25.541Z,22.06
2017-06-26T09:24:25.531Z,22.05
2017-06-26T09:25:25.552Z,22.12
2017-06-26T09:26:25.524Z,22.08
2017-06-26T09:27:25.505Z,22.22
2017-06-26T09:28:24.971Z,22.52
2017-06-26T09:29:25.169Z,22.59
2017-06-26T09:30:25.153Z,22.91
2017-06-26T09:31:25.457Z,23.32
2017-06-26T09:32:25.152Z,23.88
2017-06-26T09:33:25.460Z,24.42
2017-06-26T09:34:25.430Z,24.36
2017-06-26T09:35:25.422Z,24.39
2017-06-26T09:36:24.793Z,24.22
2017-06-26T09:37:25.089Z,24.32
2017-06-26T09:38:25.399Z,24.34
2017-06-26T09:39:25.381Z,24.15
2017-06-26T09:40:25.369Z,23.99
2017-06-26T09:41:25.361Z,24.24
2017-06-26T09:42:25.111Z,24.51
2017-06-26T09:43:25.042Z,24.52
2017-06-26T09:44:25.349Z,23.84
2017-06-26T09:45:25.406Z,23.42
2017-06-26T09:46:25.339Z,23.22
2017-06-26T09:47:25.022Z,23.12
2017-06-26T09:48:25.004Z,23.28
2017-06-26T09:49:25.283Z,23.65
2017-06-26T09:50:24.971Z,23.92
2017-06-26T09:51:25.111Z,24.1
2017-06-26T09:52:24.643Z,24.27
2017-06-26T09:53:24.950Z,24.42
2017-06-26T09:54:24.946Z,24.7
2017-06-26T09:55:24.930Z,25.03
2017-06-26T09:56:24.932Z,24.92
2017-06-26T09:57:25.239Z,24.78
2017-06-26T09:58:24.599Z,24.44
2017-06-26T09:59:25.212Z,24.44
2017-06-26T10:00:25.221Z,24.84
2017-06-26T10:01:25.200Z,25.05
2017-06-26T10:02:25.182Z,25.12
2017-06-26T10:03:24.860Z,25.15
2017-06-26T10:04:24.889Z,25.29
2017-06-26T10:05:24.857Z,25.05
2017-06-26T10:06:25.164Z,25.07
2017-06-26T10:07:24.852Z,25.29
2017-06-26T10:08:24.829Z,25.49
2017-06-26T10:09:25.132Z,25.58
2017-06-26T10:10:25.120Z,25.33
2017-06-26T10:11:25.130Z,25.11
2017-06-26T10:12:24.916Z,25.36
2017-06-26T10:13:25.111Z,25.22
2017-06-26T10:14:25.112Z,25.1
2017-06-26T10:15:24.798Z,24.99
2017-06-26T10:16:24.830Z,24.8
2017-06-26T10:17:24.800Z,24.77
2017-06-26T10:18:24.878Z,24.74
2017-06-26T10:19:24.759Z,25.1
2017-06-26T10:20:24.743Z,25.1
2017-06-26T10:21:24.744Z,25.15
2017-06-26T10:22:24.771Z,25.37
2017-06-26T10:23:24.728Z,25.26
2017-06-26T10:24:24.743Z,25.39
2017-06-26T10:25:24.721Z,25.33
2017-06-26T10:26:24.760Z,25.37
2017-06-26T10:27:25.055Z,25.11
2017-06-26T10:28:24.705Z,25.05
2017-06-26T10:29:24.697Z,25.29
2017-06-26T10:30:25.000Z,25.42
2017-06-26T10:31:24.980Z,25.56
2017-06-26T10:32:24.977Z,25.67
2017-06-26T10:33:25.067Z,25.49
2017-06-26T10:34:24.331Z,25.37
2017-06-26T10:35:24.349Z,25.22
2017-06-26T10:36:24.930Z,24.99
2017-06-26T10:37:25.011Z,24.87
2017-06-26T10:38:24.920Z,25.02
2017-06-26T10:39:24.613Z,25.05
2017-06-26T10:40:24.600Z,25.3
2017-06-26T10:41:24.900Z,25.19
2017-06-26T10:42:24.572Z,25.52
2017-06-26T10:43:24.567Z,25.64
2017-06-26T10:44:24.859Z,25.96
2017-06-26T10:45:24.567Z,26.37
2017-06-26T10:46:24.852Z,26.13
2017-06-26T10:47:24.541Z,26.03
2017-06-26T10:48:24.878Z,25.89
2017-06-26T10:49:24.520Z,25.67
2017-06-26T10:50:24.208Z,25.4
2017-06-26T10:51:24.524Z,25.32
2017-06-26T10:52:24.804Z,25.29
2017-06-26T10:53:24.825Z,25.45
2017-06-26T10:54:24.472Z,25.81
2017-06-26T10:55:24.782Z,26.17
2017-06-26T10:56:24.770Z,26.34
2017-06-26T10:57:24.761Z,26.23
2017-06-26T10:58:24.437Z,25.99
2017-06-26T10:59:24.442Z,25.7
2017-06-26T11:00:24.724Z,25.7
2017-06-26T11:01:24.426Z,25.81
2017-06-26T11:02:24.403Z,25.71
2017-06-26T11:03:24.093Z,25.56
2017-06-26T11:04:24.399Z,25.27
2017-06-26T11:05:24.408Z,25.27
2017-06-26T11:06:24.374Z,25.34
2017-06-26T11:07:24.671Z,25.29
2017-06-26T11:08:24.352Z,25.59
2017-06-26T11:09:24.343Z,25.95
2017-06-26T11:10:24.639Z,26.39
2017-06-26T11:11:24.023Z,26.15
2017-06-26T11:12:24.001Z,25.88
2017-06-26T11:13:24.304Z,25.73
2017-06-26T11:14:24.304Z,25.42
2017-06-26T11:15:24.295Z,25.32
2017-06-26T11:16:24.618Z,24.97
2017-06-26T11:17:24.580Z,24.85
2017-06-26T11:18:24.562Z,25.15
2017-06-26T11:19:24.258Z,25.33
2017-06-26T11:20:24.259Z,25.59
2017-06-26T11:21:24.251Z,25.88
2017-06-26T11:22:23.917Z,25.95
2017-06-26T11:23:24.234Z,25.94
2017-06-26T11:24:24.213Z,25.94
2017-06-26T11:25:24.188Z,26.07
2017-06-26T11:26:24.489Z,26.39
2017-06-26T11:27:24.184Z,26.42
2017-06-26T11:28:24.468Z,26.51
2017-06-26T11:29:24.161Z,26.67
2017-06-26T11:30:24.460Z,26.79
2017-06-26T11:31:24.151Z,26.93
2017-06-26T11:32:24.136Z,27.16
2017-06-26T11:33:24.440Z,27.61
2017-06-26T11:34:24.433Z,27.59
2017-06-26T11:35:24.411Z,27.57
2017-06-26T11:36:24.411Z,27.55
2017-06-26T11:37:24.400Z,27.68
2017-06-26T11:38:24.087Z,27.72
2017-06-26T11:39:24.389Z,27.34
2017-06-26T11:40:24.086Z,26.75
2017-06-26T11:41:24.058Z,26.63
2017-06-26T11:42:24.052Z,26.42
2017-06-26T11:43:24.354Z,26.1
2017-06-26T11:44:24.348Z,25.96
2017-06-26T11:45:24.339Z,26.03
2017-06-26T11:46:24.021Z,26.27
2017-06-26T11:47:24.319Z,26.57
2017-06-26T11:48:24.301Z,26.63
2017-06-26T11:49:24.010Z,26.42
2017-06-26T11:50:24.285Z,26.45
2017-06-26T11:51:24.332Z,26.69
2017-06-26T11:52:23.968Z,26.84
2017-06-26T11:53:24.072Z,27.13
2017-06-26T11:54:23.948Z,27.23
2017-06-26T11:55:24.263Z,27.13
2017-06-26T11:56:24.239Z,26.71
2017-06-26T11:57:24.271Z,26.56
2017-06-26T11:58:24.230Z,26.75
2017-06-26T11:59:24.261Z,26.82
2017-06-26T12:00:23.897Z,26.74
2017-06-26T12:01:24.296Z,26.78
2017-06-26T12:02:24.180Z,26.44
2017-06-26T12:03:24.239Z,25.95
2017-06-26T12:04:24.193Z,25.86
2017-06-26T12:05:24.146Z,25.7
2017-06-26T12:06:24.137Z,25.66
2017-06-26T12:07:23.838Z,25.54
2017-06-26T12:08:24.150Z,25.36
2017-06-26T12:09:23.812Z,25.34
2017-06-26T12:10:24.123Z,25.39
2017-06-26T12:11:24.105Z,25.62
2017-06-26T12:12:23.800Z,25.76
2017-06-26T12:13:24.079Z,25.79
2017-06-26T12:14:24.072Z,25.71
2017-06-26T12:15:24.069Z,25.52
2017-06-26T12:16:24.062Z,25.42
2017-06-26T12:17:24.060Z,25.39
2017-06-26T12:18:24.065Z,25.26
2017-06-26T12:19:24.041Z,25.1
2017-06-26T12:20:24.022Z,25.3
2017-06-26T12:21:24.034Z,25.54
2017-06-26T12:22:24.016Z,25.76
2017-06-26T12:23:24.001Z,25.85
2017-06-26T12:24:23.986Z,25.92
2017-06-26T12:25:23.986Z,26.23
2017-06-26T12:26:23.997Z,26.39
2017-06-26T12:27:23.699Z,26.51
2017-06-26T12:28:23.965Z,26.69
2017-06-26T12:29:23.944Z,26.75
2017-06-26T12:30:23.665Z,26.75
2017-06-26T12:31:23.630Z,26.7
2017-06-26T12:32:23.611Z,26.57
2017-06-26T12:33:23.645Z,26.41
2017-06-26T12:34:23.743Z,26.17
2017-06-26T12:35:23.584Z,26.13
2017-06-26T12:36:23.576Z,26.27
2017-06-26T12:37:23.960Z,26.41
2017-06-26T12:38:23.858Z,26.59
2017-06-26T12:39:23.851Z,26.57
2017-06-26T12:40:23.546Z,26.54
2017-06-26T12:41:23.581Z,26.63
2017-06-26T12:42:23.619Z,26.75
2017-06-26T12:43:23.804Z,26.79
2017-06-26T12:44:23.851Z,27.01
2017-06-26T12:45:23.970Z,27
2017-06-26T12:46:23.233Z,26.89
2017-06-26T12:47:23.460Z,26.78
2017-06-26T12:48:23.480Z,26.75
2017-06-26T12:49:23.558Z,26.76
2017-06-26T12:50:23.460Z,26.79
2017-06-26T12:51:23.448Z,26.86
2017-06-26T12:52:23.482Z,26.75
2017-06-26T12:53:23.723Z,26.79
2017-06-26T12:54:23.736Z,26.85
2017-06-26T12:55:23.713Z,26.86